Time;durP1;ratioP1;P1;durP2;ratioP2;P2;SDS_P1;SDS_P2;PMS_P1;PMS_P2;Temp;Humidity;BMP_temperature;BMP_pressure;BME280_temperature;BME280_humidity;BME280_pressure;Samples;Min_cycle;Max_cycle;Signal;HPM_P1;HPM_P2
2023/12/12 00:01:35;;;;;;;3.23;1.77;;;7.20;99.90;;;;;;5047019;28;21245;-80
2023/12/12 00:04:03;;;;;;;1.87;1.70;;;7.20;99.90;;;;;;5046340;28;20636;-79
2023/12/12 00:06:30;;;;;;;1.53;1.20;;;7.10;99.90;;;;;;5045857;28;20633;-79
2023/12/12 00:08:57;;;;;;;4.93;2.10;;;7.10;99.90;;;;;;5040100;28;20729;-79
2023/12/12 00:11:24;;;;;;;1.50;1.03;;;7.10;99.90;;;;;;5039148;28;21049;-79
2023/12/12 00:13:50;;;;;;;8.03;1.63;;;7.10;99.90;;;;;;5046548;28;20959;-79
2023/12/12 00:16:17;;;;;;;4.15;1.50;;;7.10;99.90;;;;;;5045141;28;20673;-79
2023/12/12 00:18:44;;;;;;;1.23;1.10;;;7.00;99.90;;;;;;5046801;28;20192;-79
2023/12/12 00:21:12;;;;;;;2.60;2.27;;;7.10;99.90;;;;;;5046219;28;20638;-79
2023/12/12 00:23:39;;;;;;;1.80;1.70;;;7.10;99.90;;;;;;5044445;28;20635;-79
2023/12/12 00:26:07;;;;;;;2.30;2.00;;;7.10;99.90;;;;;;5046148;28;20721;-79
2023/12/12 00:28:34;;;;;;;1.77;1.67;;;7.10;99.90;;;;;;5044561;28;20631;-79
2023/12/12 00:31:02;;;;;;;2.20;1.50;;;7.10;99.90;;;;;;5044788;28;20722;-80
2023/12/12 00:33:29;;;;;;;3.80;1.90;;;7.10;99.90;;;;;;5043979;28;20654;-79
2023/12/12 00:35:56;;;;;;;2.20;1.80;;;7.00;99.90;;;;;;5045378;28;20666;-79
2023/12/12 00:38:28;;;;;;;3.00;2.40;;;7.00;99.90;;;;;;5040867;28;21063;-79
2023/12/12 00:40:56;;;;;;;2.17;2.07;;;7.10;99.90;;;;;;5040551;28;20629;-79
2023/12/12 00:43:23;;;;;;;2.07;1.97;;;7.00;99.90;;;;;;5045633;28;21071;-79
2023/12/12 00:45:51;;;;;;;1.67;1.17;;;7.00;99.90;;;;;;5034332;28;20627;-80
2023/12/12 00:48:18;;;;;;;3.30;1.43;;;7.00;99.90;;;;;;5045716;28;20637;-79
2023/12/12 00:50:44;;;;;;;1.10;0.93;;;7.00;99.90;;;;;;5042551;28;21106;-80
2023/12/12 00:53:12;;;;;;;1.63;1.53;;;7.10;99.90;;;;;;5044570;28;20628;-79
2023/12/12 00:55:40;;;;;;;1.50;1.20;;;7.00;99.90;;;;;;5035263;28;20671;-79
2023/12/12 00:58:06;;;;;;;1.03;0.93;;;7.10;99.90;;;;;;5045845;28;20871;-79
2023/12/12 01:00:33;;;;;;;3.90;1.80;;;7.10;99.90;;;;;;5036081;28;21171;-78
2023/12/12 01:03:00;;;;;;;2.07;1.30;;;7.10;99.90;;;;;;5037930;28;20627;-78
2023/12/12 01:05:27;;;;;;;5.13;1.00;;;7.10;99.90;;;;;;5041598;28;20625;-78
2023/12/12 01:07:54;;;;;;;1.73;1.10;;;7.10;99.90;;;;;;5041524;28;20662;-78
2023/12/12 01:10:21;;;;;;;1.40;1.30;;;7.10;99.90;;;;;;5043821;28;20733;-78
2023/12/12 01:12:49;;;;;;;1.90;1.77;;;7.10;99.90;;;;;;5042579;28;20721;-80
2023/12/12 01:15:16;;;;;;;1.23;0.80;;;7.10;99.90;;;;;;5044251;28;21072;-79
2023/12/12 01:17:43;;;;;;;0.70;0.70;;;7.10;99.90;;;;;;5045602;28;20980;-79
2023/12/12 01:20:10;;;;;;;2.50;1.20;;;7.10;99.90;;;;;;5039660;28;20623;-79
2023/12/12 01:22:37;;;;;;;4.90;1.60;;;7.10;99.90;;;;;;5045401;28;20629;-78
2023/12/12 01:25:04;;;;;;;1.40;1.30;;;7.10;99.90;;;;;;5036983;28;20639;-78
2023/12/12 01:27:31;;;;;;;2.53;2.00;;;7.10;99.90;;;;;;5040964;28;20624;-79
2023/12/12 01:29:59;;;;;;;2.33;2.13;;;7.10;99.90;;;;;;5040725;28;20628;-79
2023/12/12 01:32:26;;;;;;;4.67;1.60;;;7.20;99.90;;;;;;5040457;28;20633;-80
2023/12/12 01:34:53;;;;;;;3.10;2.80;;;7.20;99.90;;;;;;5045362;28;20628;-79
2023/12/12 01:37:20;;;;;;;2.00;1.80;;;7.30;99.90;;;;;;5044905;28;20666;-79
2023/12/12 01:39:46;;;;;;;2.03;1.30;;;7.20;99.90;;;;;;5041401;28;20626;-79
2023/12/12 01:42:13;;;;;;;1.53;1.33;;;7.30;99.90;;;;;;5036123;28;20741;-79
2023/12/12 01:44:40;;;;;;;1.73;1.63;;;7.30;99.90;;;;;;5045020;28;20729;-79
2023/12/12 01:47:09;;;;;;;1.60;1.50;;;7.30;99.90;;;;;;5041939;28;20638;-78
2023/12/12 01:49:36;;;;;;;1.47;1.03;;;7.30;99.90;;;;;;5044670;28;20632;-79
2023/12/12 01:52:03;;;;;;;1.30;1.20;;;7.40;99.90;;;;;;5047824;28;20733;-79
2023/12/12 01:54:30;;;;;;;1.30;1.20;;;7.30;99.90;;;;;;5052264;28;21153;-79
2023/12/12 01:56:58;;;;;;;3.57;1.33;;;7.40;99.90;;;;;;5043564;28;20659;-77
2023/12/12 01:59:26;;;;;;;1.83;1.23;;;7.30;99.90;;;;;;5047339;28;20693;-78
2023/12/12 02:01:54;;;;;;;9.07;1.57;;;7.30;99.90;;;;;;5047481;28;20638;-79
2023/12/12 02:04:23;;;;;;;2.77;2.03;;;7.20;99.90;;;;;;5040146;28;20629;-79
2023/12/12 02:06:51;;;;;;;1.13;1.07;;;7.20;99.90;;;;;;5047500;28;20622;-79
2023/12/12 02:09:20;;;;;;;2.70;1.47;;;7.10;99.90;;;;;;5044349;28;20638;-79
2023/12/12 02:11:47;;;;;;;4.10;1.50;;;7.10;99.90;;;;;;5037451;28;20637;-79
2023/12/12 02:14:14;;;;;;;5.13;1.50;;;7.00;99.90;;;;;;5047385;28;20656;-79
2023/12/12 02:16:42;;;;;;;3.10;1.43;;;7.00;99.90;;;;;;5041772;28;20721;-79
2023/12/12 02:19:09;;;;;;;1.70;1.33;;;7.10;99.90;;;;;;5040122;28;20655;-79
2023/12/12 02:21:38;;;;;;;1.37;1.27;;;6.90;99.90;;;;;;5048535;28;21096;-79
2023/12/12 02:24:06;;;;;;;1.50;1.40;;;6.90;99.90;;;;;;5042145;28;20633;-80
2023/12/12 02:26:34;;;;;;;1.33;0.63;;;6.90;99.90;;;;;;5046039;28;21027;-80
2023/12/12 02:29:02;;;;;;;1.70;1.20;;;6.90;99.90;;;;;;5045220;28;20641;-79
2023/12/12 02:31:33;;;;;;;1.37;1.20;;;6.80;99.90;;;;;;5045509;28;20627;-79
2023/12/12 02:33:59;;;;;;;2.03;1.70;;;6.80;99.90;;;;;;5047604;28;20622;-80
2023/12/12 02:36:27;;;;;;;1.43;1.30;;;6.80;99.90;;;;;;5047786;28;20658;-80
2023/12/12 02:38:55;;;;;;;3.20;1.10;;;6.80;99.90;;;;;;5046452;28;20637;-79
2023/12/12 02:41:22;;;;;;;1.33;0.80;;;6.80;99.90;;;;;;5040994;28;21158;-79
2023/12/12 02:43:50;;;;;;;1.20;1.20;;;6.70;99.90;;;;;;5037578;28;20615;-79
2023/12/12 02:46:18;;;;;;;1.40;1.30;;;6.70;99.90;;;;;;5045618;28;20955;-79
2023/12/12 02:48:45;;;;;;;3.10;1.00;;;6.70;99.90;;;;;;5045923;28;20753;-80
2023/12/12 02:51:12;;;;;;;1.00;0.90;;;6.70;99.90;;;;;;5047489;28;20633;-79
2023/12/12 02:53:40;;;;;;;4.10;1.20;;;6.60;99.90;;;;;;5047561;28;20666;-79
2023/12/12 02:56:08;;;;;;;1.07;0.80;;;6.50;99.90;;;;;;5046567;28;20758;-79
2023/12/12 02:58:35;;;;;;;2.60;1.23;;;6.60;99.90;;;;;;5041907;28;20626;-79
2023/12/12 03:01:03;;;;;;;1.00;0.77;;;6.60;99.90;;;;;;5043073;28;20634;-78
2023/12/12 03:03:30;;;;;;;2.23;1.50;;;6.60;99.90;;;;;;5047673;28;20730;-79
2023/12/12 03:05:57;;;;;;;0.80;0.80;;;6.60;99.90;;;;;;5045008;28;20630;-79
2023/12/12 03:08:25;;;;;;;2.80;1.23;;;6.60;99.90;;;;;;5044351;28;20627;-80
2023/12/12 03:10:53;;;;;;;1.00;0.70;;;6.70;99.90;;;;;;5046767;28;21191;-78
2023/12/12 03:13:22;;;;;;;2.57;1.17;;;6.60;99.90;;;;;;5037206;28;20638;-80
2023/12/12 03:15:50;;;;;;;1.00;0.95;;;6.60;99.90;;;;;;5044239;28;20630;-80
2023/12/12 03:18:17;;;;;;;4.13;1.17;;;6.60;99.90;;;;;;5045252;28;20211;-79
2023/12/12 03:20:45;;;;;;;5.20;1.70;;;6.60;99.90;;;;;;5042530;28;20669;-79
2023/12/12 03:23:13;;;;;;;3.03;0.83;;;6.60;99.90;;;;;;5047101;28;21053;-79
2023/12/12 03:25:41;;;;;;;1.20;0.80;;;6.60;99.90;;;;;;5040385;28;20626;-80
2023/12/12 03:28:08;;;;;;;0.90;0.83;;;6.60;99.90;;;;;;5044441;28;20630;-79
2023/12/12 03:30:37;;;;;;;1.17;1.03;;;6.70;99.90;;;;;;5044547;28;20634;-79
2023/12/12 03:33:04;;;;;;;0.83;0.70;;;6.70;99.90;;;;;;5046697;28;20718;-79
2023/12/12 03:35:31;;;;;;;1.07;0.90;;;6.80;99.90;;;;;;5045833;28;20631;-79
2023/12/12 03:37:58;;;;;;;3.90;1.00;;;6.80;99.90;;;;;;5044778;28;20773;-78
2023/12/12 03:40:24;;;;;;;1.53;1.43;;;6.80;99.90;;;;;;5044417;28;20734;-78
2023/12/12 03:42:51;;;;;;;1.20;1.10;;;6.90;99.90;;;;;;5044913;28;20623;-78
2023/12/12 03:45:18;;;;;;;3.20;1.37;;;6.90;99.90;;;;;;5045497;28;20626;-79
2023/12/12 03:47:46;;;;;;;3.20;1.10;;;6.90;99.90;;;;;;5045424;28;21022;-79
2023/12/12 03:50:14;;;;;;;1.63;0.73;;;7.00;99.90;;;;;;5045899;28;20646;-79
2023/12/12 03:52:40;;;;;;;1.07;0.97;;;7.00;99.90;;;;;;5044748;28;21119;-79
2023/12/12 03:55:08;;;;;;;1.77;1.27;;;6.90;99.90;;;;;;5044032;28;20624;-79
2023/12/12 03:57:35;;;;;;;0.60;0.60;;;6.90;99.90;;;;;;5046403;28;20673;-79
2023/12/12 04:00:06;;;;;;;1.73;1.10;;;6.80;99.90;;;;;;5038317;28;20988;-79
2023/12/12 04:02:34;;;;;;;1.23;1.03;;;6.80;99.90;;;;;;5043999;28;20630;-79
2023/12/12 04:05:04;;;;;;;1.50;0.80;;;6.70;99.90;;;;;;5042655;28;20634;-79
2023/12/12 04:07:32;;;;;;;1.37;1.23;;;6.70;99.90;;;;;;5046130;28;20630;-79
2023/12/12 04:09:59;;;;;;;1.07;0.80;;;6.70;99.90;;;;;;5042823;28;20707;-79
2023/12/12 04:12:29;;;;;;;1.30;0.70;;;6.70;99.90;;;;;;5045528;28;20988;-79
2023/12/12 04:14:55;;;;;;;2.47;1.53;;;6.60;99.90;;;;;;5038356;28;20619;-79
2023/12/12 04:17:22;;;;;;;1.60;0.63;;;6.60;99.90;;;;;;5036183;28;20754;-79
2023/12/12 04:19:49;;;;;;;2.43;0.93;;;6.70;99.90;;;;;;5042666;28;20639;-79
2023/12/12 04:22:17;;;;;;;0.63;0.60;;;6.60;99.90;;;;;;5044027;28;21235;-79
2023/12/12 04:24:44;;;;;;;2.20;1.20;;;6.50;99.90;;;;;;5041503;28;20627;-79
2023/12/12 04:27:11;;;;;;;0.70;0.70;;;6.50;99.90;;;;;;5043722;28;21176;-79
2023/12/12 04:29:38;;;;;;;0.77;0.77;;;6.40;99.90;;;;;;5043214;28;20641;-79
2023/12/12 04:32:05;;;;;;;0.60;0.60;;;6.50;99.90;;;;;;5037966;28;20196;-79
2023/12/12 04:34:32;;;;;;;1.63;1.00;;;6.40;99.90;;;;;;5045502;28;20196;-79
2023/12/12 04:37:00;;;;;;;0.93;0.93;;;6.40;99.90;;;;;;5045950;28;20680;-80
2023/12/12 04:39:28;;;;;;;2.17;1.20;;;6.40;99.90;;;;;;5045309;28;20203;-79
2023/12/12 04:41:55;;;;;;;4.97;1.13;;;6.40;99.90;;;;;;5045033;28;20196;-79
2023/12/12 04:44:21;;;;;;;1.00;0.90;;;6.40;99.90;;;;;;5043810;28;20626;-78
2023/12/12 04:46:48;;;;;;;2.67;1.10;;;6.40;99.90;;;;;;5043084;28;20634;-79
2023/12/12 04:49:15;;;;;;;2.40;0.87;;;6.40;99.90;;;;;;5044655;28;20637;-79
2023/12/12 04:51:42;;;;;;;0.80;0.80;;;6.40;99.90;;;;;;5045834;28;20614;-79
2023/12/12 04:54:08;;;;;;;2.17;1.40;;;6.50;99.90;;;;;;5044412;28;20894;-79
2023/12/12 04:56:37;;;;;;;1.80;1.30;;;6.40;99.90;;;;;;5039871;28;20662;-79
2023/12/12 04:59:03;;;;;;;2.03;1.17;;;6.30;99.90;;;;;;5041603;28;20627;-79
2023/12/12 05:01:31;;;;;;;2.13;1.93;;;6.40;99.90;;;;;;5037653;28;20623;-79
2023/12/12 05:03:57;;;;;;;2.03;1.77;;;6.40;99.90;;;;;;5042552;28;20641;-79
2023/12/12 05:06:24;;;;;;;2.90;2.40;;;6.40;99.90;;;;;;5043595;28;20208;-79
2023/12/12 05:08:51;;;;;;;2.13;1.83;;;6.40;99.90;;;;;;5043797;28;20623;-79
2023/12/12 05:11:18;;;;;;;3.50;2.00;;;6.30;99.90;;;;;;5044600;28;20729;-80
2023/12/12 05:13:46;;;;;;;2.40;2.20;;;6.40;99.90;;;;;;5044425;28;20654;-79
2023/12/12 05:16:13;;;;;;;4.83;3.60;;;6.40;99.90;;;;;;5043342;28;20631;-79
2023/12/12 05:18:40;;;;;;;2.83;2.30;;;6.40;99.90;;;;;;5045859;28;20685;-79
2023/12/12 05:21:06;;;;;;;5.57;2.30;;;6.40;99.90;;;;;;5040972;28;20210;-79
2023/12/12 05:23:33;;;;;;;2.97;2.67;;;6.50;99.90;;;;;;5041976;28;20637;-79
2023/12/12 05:26:00;;;;;;;3.17;2.40;;;6.50;99.90;;;;;;5047690;28;20637;-79
2023/12/12 05:28:27;;;;;;;2.10;1.97;;;6.60;99.90;;;;;;5048054;28;20622;-79
2023/12/12 05:30:57;;;;;;;1.50;1.40;;;6.60;99.90;;;;;;5046189;28;20677;-77
2023/12/12 05:33:24;;;;;;;1.63;1.37;;;6.60;99.90;;;;;;5046270;28;20618;-78
2023/12/12 05:35:51;;;;;;;1.55;1.45;;;6.70;99.90;;;;;;5046230;28;20840;-76
2023/12/12 05:38:18;;;;;;;1.23;1.10;;;6.60;99.90;;;;;;5052488;28;20600;-79
2023/12/12 05:40:44;;;;;;;1.43;1.23;;;6.60;99.90;;;;;;5048335;28;20754;-78
2023/12/12 05:43:11;;;;;;;1.50;1.33;;;6.70;99.90;;;;;;5041534;28;20646;-78
2023/12/12 05:45:38;;;;;;;1.60;1.37;;;6.60;99.90;;;;;;5049740;28;20737;-79
2023/12/12 05:48:07;;;;;;;1.27;1.00;;;6.80;99.90;;;;;;5044914;28;20642;-78
2023/12/12 05:50:33;;;;;;;1.27;1.17;;;6.80;99.90;;;;;;5045293;28;20648;-78
2023/12/12 05:53:00;;;;;;;2.23;1.40;;;6.70;99.90;;;;;;5044769;28;20640;-78
2023/12/12 05:55:28;;;;;;;1.00;1.00;;;6.70;99.90;;;;;;5046055;28;20633;-78
2023/12/12 05:57:55;;;;;;;2.17;1.50;;;6.80;99.90;;;;;;5046002;28;20679;-78
2023/12/12 06:00:22;;;;;;;1.10;1.00;;;6.80;99.90;;;;;;5049699;28;20622;-75
2023/12/12 06:02:49;;;;;;;4.83;1.60;;;6.70;99.90;;;;;;5049432;28;20632;-77
2023/12/12 06:05:18;;;;;;;2.63;1.53;;;6.70;99.90;;;;;;5048500;28;20684;-75
2023/12/12 06:07:45;;;;;;;2.53;1.80;;;6.70;99.90;;;;;;5047013;28;20626;-77
2023/12/12 06:10:12;;;;;;;1.30;1.20;;;6.70;99.90;;;;;;5042702;28;20982;-77
2023/12/12 06:12:39;;;;;;;1.53;1.43;;;6.80;99.90;;;;;;5042653;28;20623;-76
2023/12/12 06:15:07;;;;;;;4.10;1.97;;;6.80;99.90;;;;;;5043270;28;20631;-76
2023/12/12 06:17:34;;;;;;;1.63;1.40;;;6.90;99.90;;;;;;5042993;28;20672;-77
2023/12/12 06:20:02;;;;;;;2.70;1.47;;;7.00;99.90;;;;;;5045538;28;20648;-78
2023/12/12 06:22:30;;;;;;;3.03;1.43;;;7.00;99.90;;;;;;5045250;28;20741;-76
2023/12/12 06:24:57;;;;;;;1.97;1.73;;;7.00;99.90;;;;;;5045359;28;20626;-76
2023/12/12 06:27:24;;;;;;;1.83;1.60;;;7.00;99.90;;;;;;5035486;28;21014;-77
2023/12/12 06:29:51;;;;;;;4.70;3.10;;;7.00;99.90;;;;;;5040690;28;20526;-76
2023/12/12 06:32:17;;;;;;;4.57;3.70;;;6.90;99.90;;;;;;5040776;28;20920;-78
2023/12/12 06:34:45;;;;;;;3.60;3.30;;;7.00;99.90;;;;;;5041881;28;20626;-79
2023/12/12 06:37:12;;;;;;;4.00;3.20;;;7.00;99.90;;;;;;5045489;28;20662;-78
2023/12/12 06:39:41;;;;;;;3.20;2.03;;;7.10;99.90;;;;;;5048077;28;20744;-77
2023/12/12 06:42:08;;;;;;;4.87;1.97;;;7.10;99.90;;;;;;5045886;28;20976;-77
2023/12/12 06:44:35;;;;;;;3.63;2.33;;;7.20;99.90;;;;;;5043350;28;20637;-79
2023/12/12 06:47:01;;;;;;;3.10;1.90;;;7.20;99.90;;;;;;5044063;28;20654;-78
2023/12/12 06:49:28;;;;;;;2.33;2.13;;;7.20;99.90;;;;;;5047981;28;20630;-78
2023/12/12 06:51:55;;;;;;;1.43;1.10;;;7.10;99.90;;;;;;5048358;28;20623;-78
2023/12/12 06:54:22;;;;;;;2.53;1.90;;;7.10;99.90;;;;;;5044118;28;20618;-79
2023/12/12 06:56:50;;;;;;;2.47;1.83;;;7.20;99.90;;;;;;5041419;28;20630;-79
2023/12/12 06:59:17;;;;;;;1.40;1.30;;;7.20;99.90;;;;;;5045900;28;21253;-78
2023/12/12 07:01:44;;;;;;;1.03;1.03;;;7.20;99.90;;;;;;5046960;28;20621;-79
2023/12/12 07:04:11;;;;;;;2.07;1.87;;;7.10;99.90;;;;;;5040914;28;20851;-78
2023/12/12 07:06:38;;;;;;;4.13;1.42;;;7.10;99.90;;;;;;5047050;28;20748;-79
2023/12/12 07:09:04;;;;;;;1.73;1.43;;;7.10;99.90;;;;;;5043058;28;20635;-78
2023/12/12 07:11:32;;;;;;;1.80;1.20;;;7.20;99.90;;;;;;5045681;28;20637;-76
2023/12/12 07:14:00;;;;;;;0.87;0.77;;;7.20;99.90;;;;;;5047020;28;20615;-78
2023/12/12 07:16:27;;;;;;;1.10;1.00;;;7.20;99.90;;;;;;5047058;28;20618;-77
2023/12/12 07:18:53;;;;;;;1.60;0.83;;;7.20;99.90;;;;;;5048450;28;20670;-75
2023/12/12 07:21:21;;;;;;;2.80;1.50;;;7.20;99.90;;;;;;5043185;28;20704;-77
2023/12/12 07:23:49;;;;;;;4.93;2.57;;;7.30;99.90;;;;;;5046811;28;21201;-77
2023/12/12 07:26:17;;;;;;;8.53;2.17;;;7.30;99.90;;;;;;5046697;28;20626;-79
2023/12/12 07:28:43;;;;;;;1.57;1.47;;;7.30;99.90;;;;;;5046889;28;20932;-78
2023/12/12 07:31:11;;;;;;;4.20;1.60;;;7.30;99.90;;;;;;5045810;28;20881;-77
2023/12/12 07:33:38;;;;;;;3.10;2.07;;;7.30;99.90;;;;;;5045425;28;20990;-78
2023/12/12 07:36:06;;;;;;;1.30;1.03;;;7.30;99.90;;;;;;5037931;28;20639;-78
2023/12/12 07:38:33;;;;;;;1.07;1.00;;;7.30;99.90;;;;;;5038977;28;20977;-78
2023/12/12 07:41:00;;;;;;;1.60;1.50;;;7.30;99.90;;;;;;5040668;28;20634;-77
2023/12/12 07:43:27;;;;;;;1.60;1.37;;;7.30;99.90;;;;;;5046017;28;21198;-76
2023/12/12 07:45:54;;;;;;;1.73;1.60;;;7.30;99.90;;;;;;5042379;28;20642;-78
2023/12/12 07:48:22;;;;;;;2.13;1.37;;;7.30;99.90;;;;;;5047111;28;20619;-77
2023/12/12 07:50:49;;;;;;;5.07;2.13;;;7.40;99.90;;;;;;5046881;28;20632;-77
2023/12/12 07:53:16;;;;;;;1.83;1.30;;;7.40;99.90;;;;;;5048983;28;20630;-78
2023/12/12 07:55:43;;;;;;;2.00;1.70;;;7.40;99.90;;;;;;5044351;28;20636;-78
2023/12/12 07:58:09;;;;;;;2.37;1.60;;;7.40;99.90;;;;;;5047193;28;20680;-78
2023/12/12 08:00:36;;;;;;;2.10;2.00;;;7.40;99.90;;;;;;5046283;28;20626;-78
2023/12/12 08:03:05;;;;;;;1.50;1.43;;;7.40;99.90;;;;;;5046836;28;20639;-78
2023/12/12 08:05:33;;;;;;;5.43;2.17;;;7.40;99.90;;;;;;5047151;28;20633;-78
2023/12/12 08:08:03;;;;;;;2.90;1.40;;;7.40;99.90;;;;;;5046953;28;20729;-78
2023/12/12 08:10:30;;;;;;;1.77;1.67;;;7.40;99.90;;;;;;5046738;28;20673;-78
2023/12/12 08:12:58;;;;;;;2.43;1.80;;;7.40;99.90;;;;;;5040565;28;21037;-78
2023/12/12 08:15:25;;;;;;;1.30;1.20;;;7.40;99.90;;;;;;5041935;28;20628;-77
2023/12/12 08:17:51;;;;;;;2.30;1.40;;;7.50;99.90;;;;;;5046595;28;21260;-78
2023/12/12 08:20:18;;;;;;;2.00;1.77;;;7.50;99.90;;;;;;5046573;28;21187;-78
2023/12/12 08:22:46;;;;;;;2.23;1.30;;;7.50;99.90;;;;;;5046775;28;20718;-78
2023/12/12 08:25:13;;;;;;;4.30;1.40;;;7.60;99.90;;;;;;5046228;28;20629;-78
2023/12/12 08:27:40;;;;;;;3.07;1.73;;;7.60;99.90;;;;;;5046413;28;20741;-78
2023/12/12 08:30:08;;;;;;;1.23;1.13;;;7.70;99.90;;;;;;5041652;28;20797;-78
2023/12/12 08:32:37;;;;;;;1.10;1.00;;;7.70;99.90;;;;;;5040797;28;20687;-78
2023/12/12 08:35:04;;;;;;;1.40;1.30;;;7.80;99.90;;;;;;5046551;28;20650;-78
2023/12/12 08:37:31;;;;;;;4.47;1.60;;;7.90;99.90;;;;;;5051916;28;20636;-78
2023/12/12 08:40:00;;;;;;;1.27;1.17;;;7.80;99.90;;;;;;5044133;28;21285;-77
2023/12/12 08:42:26;;;;;;;1.70;1.60;;;7.80;99.90;;;;;;5046568;28;20635;-77
2023/12/12 08:44:54;;;;;;;1.53;1.43;;;7.70;99.90;;;;;;5046296;28;20935;-78
2023/12/12 08:47:20;;;;;;;1.67;1.40;;;7.90;99.90;;;;;;5045967;28;20642;-78
2023/12/12 08:49:47;;;;;;;1.90;1.80;;;7.80;99.90;;;;;;5045887;28;21209;-78
2023/12/12 08:52:15;;;;;;;2.37;1.73;;;7.80;99.90;;;;;;5046787;28;20645;-77
2023/12/12 08:54:44;;;;;;;2.00;1.80;;;7.80;99.90;;;;;;5045442;28;21159;-78
2023/12/12 08:57:13;;;;;;;1.83;1.57;;;7.80;99.90;;;;;;5047205;28;20644;-78
2023/12/12 08:59:40;;;;;;;2.30;1.30;;;7.80;99.90;;;;;;5050158;28;20705;-78
2023/12/12 09:02:07;;;;;;;1.40;1.30;;;7.80;99.90;;;;;;5050576;28;20633;-78
2023/12/12 09:04:34;;;;;;;5.90;1.70;;;7.80;99.90;;;;;;5050033;28;21207;-78
2023/12/12 09:07:00;;;;;;;1.73;1.60;;;7.80;99.90;;;;;;5049975;28;20636;-77
2023/12/12 09:09:28;;;;;;;2.27;2.10;;;7.90;99.90;;;;;;5050174;28;21010;-77
2023/12/12 09:11:54;;;;;;;4.00;1.50;;;7.90;99.90;;;;;;5048523;28;20709;-78
2023/12/12 09:14:23;;;;;;;2.97;2.27;;;7.90;99.90;;;;;;5043967;28;20636;-78
2023/12/12 09:16:50;;;;;;;1.90;1.53;;;7.90;99.90;;;;;;5049793;28;20743;-78
2023/12/12 09:19:17;;;;;;;3.70;1.90;;;8.00;99.90;;;;;;5049634;28;20676;-78
2023/12/12 09:21:44;;;;;;;1.73;1.63;;;7.90;99.90;;;;;;5049724;28;21053;-79
2023/12/12 09:24:13;;;;;;;2.17;1.97;;;7.90;99.90;;;;;;5050128;28;20629;-78
2023/12/12 09:26:39;;;;;;;2.27;2.07;;;7.90;99.90;;;;;;5049941;28;20625;-78
2023/12/12 09:29:06;;;;;;;2.20;1.77;;;8.00;99.90;;;;;;5048598;28;20635;-79
2023/12/12 09:31:35;;;;;;;1.73;1.50;;;8.10;99.90;;;;;;5046787;28;21213;-79
2023/12/12 09:34:02;;;;;;;2.70;2.50;;;8.10;99.90;;;;;;5049377;28;21196;-79
2023/12/12 09:36:29;;;;;;;2.77;2.37;;;8.10;99.90;;;;;;5050992;28;20625;-79
2023/12/12 09:38:57;;;;;;;4.60;3.30;;;8.00;99.90;;;;;;5053862;28;20704;-79
2023/12/12 09:41:25;;;;;;;4.50;4.10;;;8.00;99.90;;;;;;5049429;28;20633;-78
2023/12/12 09:43:52;;;;;;;11.90;6.70;;;8.00;99.90;;;;;;5049962;28;20644;-78
2023/12/12 09:46:20;;;;;;;12.97;6.17;;;8.00;99.90;;;;;;5049053;28;20738;-78
2023/12/12 09:48:50;;;;;;;10.00;4.17;;;8.00;99.90;;;;;;5047595;28;20770;-78
2023/12/12 09:51:17;;;;;;;4.30;3.00;;;7.90;99.90;;;;;;5047379;28;20634;-77
2023/12/12 09:53:47;;;;;;;4.27;3.80;;;7.90;99.90;;;;;;5051034;28;21438;-77
2023/12/12 09:56:18;;;;;;;5.30;2.97;;;7.90;99.90;;;;;;5049356;28;21154;-78
2023/12/12 09:58:46;;;;;;;3.63;2.70;;;7.90;99.90;;;;;;5043966;28;20658;-78
2023/12/12 10:01:13;;;;;;;3.97;3.57;;;8.00;99.90;;;;;;5048788;28;20641;-78
2023/12/12 10:03:40;;;;;;;2.67;2.47;;;7.90;99.90;;;;;;5048310;28;20626;-78
2023/12/12 10:06:11;;;;;;;3.60;3.30;;;8.00;99.90;;;;;;5047040;28;20637;-78
2023/12/12 10:08:38;;;;;;;5.20;3.57;;;8.00;99.90;;;;;;5048772;28;21207;-77
2023/12/12 10:11:06;;;;;;;4.90;3.80;;;8.00;99.90;;;;;;5048827;28;20721;-77
2023/12/12 10:13:50;;;;;;;4.30;3.90;;;8.10;99.90;;;;;;5048836;28;20636;-78
2023/12/12 10:16:18;;;;;;;11.53;3.10;;;8.10;99.90;;;;;;5048217;28;20634;-77
2023/12/12 10:18:46;;;;;;;4.60;3.70;;;8.20;99.90;;;;;;5049243;28;20672;-77
2023/12/12 10:21:18;;;;;;;5.07;3.57;;;8.10;99.90;;;;;;5046365;28;20673;-77
2023/12/12 10:23:46;;;;;;;13.30;2.80;;;8.00;99.90;;;;;;5043169;28;20998;-77
2023/12/12 10:26:13;;;;;;;3.37;2.90;;;8.20;99.90;;;;;;5048504;28;20638;-78
2023/12/12 10:28:41;;;;;;;4.43;3.53;;;8.20;99.90;;;;;;5049145;28;20623;-78
2023/12/12 10:31:08;;;;;;;3.63;2.53;;;8.30;99.90;;;;;;5047058;28;20633;-78
2023/12/12 10:33:36;;;;;;;3.23;2.93;;;8.10;99.90;;;;;;5048621;28;20638;-78
2023/12/12 10:36:03;;;;;;;3.80;2.67;;;8.10;99.90;;;;;;5047737;28;21269;-78
2023/12/12 10:38:35;;;;;;;2.83;2.50;;;8.10;99.90;;;;;;5045706;28;20674;-77
2023/12/12 10:41:13;;;;;;;1.87;1.77;;;8.10;99.90;;;;;;5047839;28;21199;-77
2023/12/12 10:43:41;;;;;;;2.07;1.90;;;8.10;99.90;;;;;;5042403;28;20712;-78
2023/12/12 10:46:11;;;;;;;2.30;2.10;;;8.10;99.90;;;;;;5048192;28;20996;-78
2023/12/12 10:48:43;;;;;;;1.30;1.20;;;8.00;99.90;;;;;;5045882;28;20622;-77
2023/12/12 10:51:11;;;;;;;1.70;1.53;;;8.10;99.90;;;;;;5045682;28;20626;-78
2023/12/12 10:53:40;;;;;;;0.80;0.80;;;8.10;99.90;;;;;;5050903;28;21489;-78
2023/12/12 10:56:08;;;;;;;1.70;1.60;;;8.10;99.90;;;;;;5045028;28;20661;-78
2023/12/12 10:58:36;;;;;;;4.20;1.40;;;8.10;99.90;;;;;;5048370;28;20670;-78
2023/12/12 11:01:04;;;;;;;1.90;1.40;;;8.20;99.90;;;;;;5047822;28;20646;-77
2023/12/12 11:03:31;;;;;;;1.70;1.00;;;8.30;99.90;;;;;;5047949;28;20622;-78
2023/12/12 11:05:59;;;;;;;1.57;1.47;;;8.30;99.90;;;;;;5047545;28;20963;-78
2023/12/12 11:08:27;;;;;;;1.33;1.23;;;8.30;99.90;;;;;;5044452;28;21027;-79
2023/12/12 11:10:56;;;;;;;1.30;1.20;;;8.30;99.90;;;;;;5047887;28;20619;-79
2023/12/12 11:13:25;;;;;;;0.93;0.93;;;8.50;99.90;;;;;;5047184;28;20639;-79
2023/12/12 11:15:54;;;;;;;1.30;1.17;;;8.50;99.90;;;;;;5047113;28;20633;-79
2023/12/12 11:18:21;;;;;;;1.77;1.67;;;8.50;99.90;;;;;;5047663;28;20994;-79
2023/12/12 11:20:48;;;;;;;2.50;1.63;;;8.50;99.90;;;;;;5047260;28;21301;-79
2023/12/12 11:23:53;;;;;;;2.60;1.50;;;8.60;99.90;;;;;;5047959;28;20611;-79
2023/12/12 11:26:24;;;;;;;1.57;1.47;;;8.60;99.90;;;;;;5037503;28;20634;-79
2023/12/12 11:28:51;;;;;;;1.67;1.57;;;8.70;99.90;;;;;;5047619;28;20630;-79
2023/12/12 11:31:22;;;;;;;3.30;1.43;;;8.80;99.90;;;;;;5042482;28;20681;-79
2023/12/12 11:34:06;;;;;;;1.90;1.57;;;8.80;99.90;;;;;;5047379;28;21168;-79
2023/12/12 11:36:49;;;;;;;1.67;1.57;;;8.90;99.90;;;;;;5042724;28;20623;-79
2023/12/12 11:39:34;;;;;;;3.00;2.17;;;8.90;99.90;;;;;;5048352;28;20650;-79
2023/12/12 11:42:04;;;;;;;1.27;1.27;;;9.00;99.90;;;;;;5047514;28;20649;-79
2023/12/12 11:44:41;;;;;;;2.73;1.30;;;9.00;99.90;;;;;;5047018;28;21148;-79
2023/12/12 11:47:13;;;;;;;1.60;1.50;;;9.10;99.90;;;;;;5046049;28;21025;-79
2023/12/12 11:49:40;;;;;;;1.90;1.60;;;9.20;99.90;;;;;;5039711;28;20753;-79
2023/12/12 11:52:07;;;;;;;0.90;0.90;;;9.20;99.90;;;;;;5047364;28;20639;-78
2023/12/12 11:54:34;;;;;;;1.40;1.30;;;9.20;99.90;;;;;;5049516;28;20673;-79
2023/12/12 11:57:03;;;;;;;1.30;1.20;;;9.20;99.90;;;;;;5047212;28;20640;-78
2023/12/12 11:59:32;;;;;;;1.53;1.27;;;9.10;99.90;;;;;;5046565;28;20659;-79
2023/12/12 12:01:59;;;;;;;1.50;1.40;;;9.10;99.90;;;;;;5047058;28;20637;-79
2023/12/12 12:04:26;;;;;;;1.63;1.53;;;9.20;99.90;;;;;;5046763;28;21390;-79
2023/12/12 12:06:53;;;;;;;1.73;1.20;;;9.20;99.90;;;;;;5043762;28;20637;-79
2023/12/12 12:09:20;;;;;;;1.80;1.27;;;9.10;99.90;;;;;;5044717;28;20643;-79
2023/12/12 12:11:49;;;;;;;1.47;1.00;;;9.20;99.90;;;;;;5046714;28;20642;-80
2023/12/12 12:14:22;;;;;;;1.43;1.30;;;9.10;99.90;;;;;;5046365;28;20642;-78
2023/12/12 12:16:54;;;;;;;1.40;1.30;;;9.20;99.90;;;;;;5046289;28;20623;-78
2023/12/12 12:19:32;;;;;;;1.37;0.90;;;9.10;99.90;;;;;;5046334;28;20729;-79
2023/12/12 12:22:03;;;;;;;3.10;1.50;;;9.20;99.90;;;;;;5046635;28;20663;-78
2023/12/12 12:24:30;;;;;;;1.03;0.77;;;9.30;99.90;;;;;;5035659;28;21468;-78
2023/12/12 12:26:57;;;;;;;1.90;1.07;;;9.30;99.90;;;;;;5040352;28;20630;-79
2023/12/12 12:29:26;;;;;;;1.13;0.90;;;9.30;99.90;;;;;;5039677;28;20628;-79
2023/12/12 12:31:53;;;;;;;1.83;1.20;;;9.30;99.90;;;;;;5046578;28;20659;-79
2023/12/12 12:34:21;;;;;;;2.00;1.40;;;9.30;99.90;;;;;;5046400;28;20627;-78
2023/12/12 12:36:48;;;;;;;2.80;1.17;;;9.20;99.90;;;;;;5050595;28;20625;-79
2023/12/12 12:39:16;;;;;;;2.50;1.47;;;9.40;99.90;;;;;;5047529;28;20716;-78
2023/12/12 12:41:46;;;;;;;0.90;0.90;;;9.50;99.90;;;;;;5038103;28;20646;-78
2023/12/12 12:44:13;;;;;;;2.67;1.37;;;9.40;99.90;;;;;;5038113;28;20714;-78
2023/12/12 12:46:48;;;;;;;1.10;1.00;;;9.40;99.90;;;;;;5046187;28;20739;-78
2023/12/12 12:49:15;;;;;;;7.17;1.70;;;9.40;99.90;;;;;;5045996;28;20623;-78
2023/12/12 12:51:42;;;;;;;0.77;0.77;;;9.30;99.90;;;;;;5046513;28;20637;-78
2023/12/12 12:54:09;;;;;;;1.40;1.20;;;9.40;99.90;;;;;;5047622;28;20631;-78
2023/12/12 12:56:36;;;;;;;0.90;0.90;;;9.40;99.90;;;;;;5046023;28;20718;-78
2023/12/12 12:59:05;;;;;;;2.37;1.10;;;9.30;99.90;;;;;;5042460;28;21308;-78
2023/12/12 13:01:31;;;;;;;1.40;1.30;;;9.40;99.90;;;;;;5042262;28;20724;-80